sensor_id;sensor_type;location;lat;lon;timestamp;pressure;altitude;pressure_sealevel;temperature;humidity
11806;BME280;5960;42.602;23.482;2022-08-19T00:00:09;93210.97;;;24.41;49.48
11806;BME280;5960;42.602;23.482;2022-08-19T00:02:37;93205.63;;;24.36;49.49
11806;BME280;5960;42.602;23.482;2022-08-19T00:05:05;93207.97;;;24.42;49.33
11806;BME280;5960;42.602;23.482;2022-08-19T00:07:32;93215.03;;;24.38;49.15
11806;BME280;5960;42.602;23.482;2022-08-19T00:09:58;93215.63;;;24.30;49.59
11806;BME280;5960;42.602;23.482;2022-08-19T00:12:25;93209.34;;;24.40;48.91
11806;BME280;5960;42.602;23.482;2022-08-19T00:14:54;93206.59;;;24.50;48.18
11806;BME280;5960;42.602;23.482;2022-08-19T00:17:21;93214.00;;;24.63;49.27
11806;BME280;5960;42.602;23.482;2022-08-19T00:19:48;93221.00;;;24.64;49.68
11806;BME280;5960;42.602;23.482;2022-08-19T00:22:15;93228.53;;;24.68;49.82
11806;BME280;5960;42.602;23.482;2022-08-19T00:24:43;93225.91;;;24.57;49.46
11806;BME280;5960;42.602;23.482;2022-08-19T00:27:10;93225.69;;;24.54;50.81
11806;BME280;5960;42.602;23.482;2022-08-19T00:29:37;93228.19;;;24.45;50.72
11806;BME280;5960;42.602;23.482;2022-08-19T00:32:06;93227.66;;;24.43;50.33
11806;BME280;5960;42.602;23.482;2022-08-19T00:34:33;93236.31;;;24.34;50.45
11806;BME280;5960;42.602;23.482;2022-08-19T00:36:59;93233.09;;;24.32;50.55
11806;BME280;5960;42.602;23.482;2022-08-19T00:39:26;93229.38;;;24.28;51.13
11806;BME280;5960;42.602;23.482;2022-08-19T00:41:53;93235.34;;;24.20;51.57
11806;BME280;5960;42.602;23.482;2022-08-19T00:44:22;93234.63;;;24.04;51.61
11806;BME280;5960;42.602;23.482;2022-08-19T00:46:51;93229.25;;;24.04;52.15
11806;BME280;5960;42.602;23.482;2022-08-19T00:49:24;93228.72;;;23.97;52.60
11806;BME280;5960;42.602;23.482;2022-08-19T00:51:55;93229.00;;;23.95;52.81
11806;BME280;5960;42.602;23.482;2022-08-19T00:54:24;93229.25;;;24.04;52.59
11806;BME280;5960;42.602;23.482;2022-08-19T00:56:52;93228.47;;;24.03;51.72
11806;BME280;5960;42.602;23.482;2022-08-19T00:59:19;93220.41;;;23.98;53.01
11806;BME280;5960;42.602;23.482;2022-08-19T01:01:47;93221.72;;;23.96;52.95
11806;BME280;5960;42.602;23.482;2022-08-19T01:04:14;93226.88;;;23.97;53.21
11806;BME280;5960;42.602;23.482;2022-08-19T01:06:42;93220.66;;;24.02;52.84
11806;BME280;5960;42.602;23.482;2022-08-19T01:09:09;93221.22;;;23.99;52.47
11806;BME280;5960;42.602;23.482;2022-08-19T01:11:39;93225.53;;;23.95;53.28
11806;BME280;5960;42.602;23.482;2022-08-19T01:14:08;93215.56;;;23.95;53.14
11806;BME280;5960;42.602;23.482;2022-08-19T01:16:37;93216.41;;;23.91;52.28
11806;BME280;5960;42.602;23.482;2022-08-19T01:19:10;93212.97;;;23.80;52.82
11806;BME280;5960;42.602;23.482;2022-08-19T01:21:43;93204.56;;;23.92;52.63
11806;BME280;5960;42.602;23.482;2022-08-19T01:24:14;93209.66;;;23.88;53.33
11806;BME280;5960;42.602;23.482;2022-08-19T01:26:44;93212.41;;;23.83;53.88
11806;BME280;5960;42.602;23.482;2022-08-19T01:29:12;93212.69;;;23.81;54.30
11806;BME280;5960;42.602;23.482;2022-08-19T01:31:39;93218.91;;;23.77;54.15
11806;BME280;5960;42.602;23.482;2022-08-19T01:34:06;93216.78;;;23.63;54.60
11806;BME280;5960;42.602;23.482;2022-08-19T01:36:35;93211.19;;;23.54;53.90
11806;BME280;5960;42.602;23.482;2022-08-19T01:39:06;93211.75;;;23.51;54.16
11806;BME280;5960;42.602;23.482;2022-08-19T01:41:34;93212.34;;;23.43;54.14
11806;BME280;5960;42.602;23.482;2022-08-19T01:44:02;93217.44;;;23.39;54.67
11806;BME280;5960;42.602;23.482;2022-08-19T01:46:30;93215.03;;;23.33;54.54
11806;BME280;5960;42.602;23.482;2022-08-19T01:48:57;93205.66;;;23.14;55.00
11806;BME280;5960;42.602;23.482;2022-08-19T01:51:24;93207.03;;;23.12;55.28
11806;BME280;5960;42.602;23.482;2022-08-19T01:53:52;93208.41;;;23.04;55.16
11806;BME280;5960;42.602;23.482;2022-08-19T01:56:19;93206.50;;;23.05;55.11
11806;BME280;5960;42.602;23.482;2022-08-19T01:58:50;93204.88;;;23.04;55.44
11806;BME280;5960;42.602;23.482;2022-08-19T02:01:19;93191.69;;;23.18;54.60
11806;BME280;5960;42.602;23.482;2022-08-19T02:03:45;93201.38;;;23.24;54.57
11806;BME280;5960;42.602;23.482;2022-08-19T02:06:13;93207.81;;;23.33;55.38
11806;BME280;5960;42.602;23.482;2022-08-19T02:08:42;93207.53;;;23.29;55.09
11806;BME280;5960;42.602;23.482;2022-08-19T02:11:19;93209.94;;;23.21;54.10
11806;BME280;5960;42.602;23.482;2022-08-19T02:13:47;93209.44;;;23.29;54.73
11806;BME280;5960;42.602;23.482;2022-08-19T02:16:14;93203.44;;;23.42;54.04
11806;BME280;5960;42.602;23.482;2022-08-19T02:18:41;93212.66;;;23.31;54.12
11806;BME280;5960;42.602;23.482;2022-08-19T02:21:08;93214.75;;;23.39;54.28
11806;BME280;5960;42.602;23.482;2022-08-19T02:23:36;93211.53;;;23.37;54.25
11806;BME280;5960;42.602;23.482;2022-08-19T02:26:02;93216.94;;;23.32;54.90
11806;BME280;5960;42.602;23.482;2022-08-19T02:28:29;93211.03;;;23.35;54.77
11806;BME280;5960;42.602;23.482;2022-08-19T02:30:59;93218.56;;;23.33;55.32
11806;BME280;5960;42.602;23.482;2022-08-19T02:33:27;93222.09;;;23.23;55.06
11806;BME280;5960;42.602;23.482;2022-08-19T02:35:55;93227.16;;;23.20;55.50
11806;BME280;5960;42.602;23.482;2022-08-19T02:38:21;93224.47;;;23.14;55.56
11806;BME280;5960;42.602;23.482;2022-08-19T02:40:55;93226.38;;;23.04;55.82
11806;BME280;5960;42.602;23.482;2022-08-19T02:43:23;93226.41;;;22.98;56.20
11806;BME280;5960;42.602;23.482;2022-08-19T02:45:51;93233.38;;;23.05;56.01
11806;BME280;5960;42.602;23.482;2022-08-19T02:48:21;93233.69;;;22.88;56.25
11806;BME280;5960;42.602;23.482;2022-08-19T02:50:50;93228.56;;;22.86;56.21
11806;BME280;5960;42.602;23.482;2022-08-19T02:53:20;93226.72;;;22.76;56.82
11806;BME280;5960;42.602;23.482;2022-08-19T02:55:48;93227.00;;;22.75;56.81
11806;BME280;5960;42.602;23.482;2022-08-19T02:58:15;93231.25;;;22.81;57.21
11806;BME280;5960;42.602;23.482;2022-08-19T03:00:44;93216.50;;;22.78;56.81
11806;BME280;5960;42.602;23.482;2022-08-19T03:03:11;93235.84;;;22.70;57.15
11806;BME280;5960;42.602;23.482;2022-08-19T03:05:39;93224.59;;;22.63;57.54
11806;BME280;5960;42.602;23.482;2022-08-19T03:08:06;93224.84;;;22.61;57.50
11806;BME280;5960;42.602;23.482;2022-08-19T03:10:40;93224.31;;;22.59;57.48
11806;BME280;5960;42.602;23.482;2022-08-19T03:13:09;93225.66;;;22.62;58.03
11806;BME280;5960;42.602;23.482;2022-08-19T03:15:39;93219.22;;;22.52;58.74
11806;BME280;5960;42.602;23.482;2022-08-19T03:18:06;93226.19;;;22.48;58.38
11806;BME280;5960;42.602;23.482;2022-08-19T03:20:33;93221.88;;;22.47;58.21
11806;BME280;5960;42.602;23.482;2022-08-19T03:23:01;93224.81;;;22.40;57.85
11806;BME280;5960;42.602;23.482;2022-08-19T03:25:28;93213.81;;;22.37;58.20
11806;BME280;5960;42.602;23.482;2022-08-19T03:27:54;93213.81;;;22.37;57.31
11806;BME280;5960;42.602;23.482;2022-08-19T03:30:21;93212.22;;;22.36;58.55
11806;BME280;5960;42.602;23.482;2022-08-19T03:32:48;93214.06;;;22.35;58.95
11806;BME280;5960;42.602;23.482;2022-08-19T03:35:15;93214.63;;;22.32;59.11
11806;BME280;5960;42.602;23.482;2022-08-19T03:37:41;93217.31;;;22.37;59.13
11806;BME280;5960;42.602;23.482;2022-08-19T03:40:10;93225.88;;;22.34;58.16
11806;BME280;5960;42.602;23.482;2022-08-19T03:42:37;93220.25;;;22.36;58.27
11806;BME280;5960;42.602;23.482;2022-08-19T03:45:05;93229.16;;;22.47;58.78
11806;BME280;5960;42.602;23.482;2022-08-19T03:47:32;93229.13;;;22.42;58.50
11806;BME280;5960;42.602;23.482;2022-08-19T03:49:59;93232.34;;;22.38;59.11
11806;BME280;5960;42.602;23.482;2022-08-19T03:52:26;93235.00;;;22.38;58.50
11806;BME280;5960;42.602;23.482;2022-08-19T03:54:52;93231.00;;;22.36;58.61
11806;BME280;5960;42.602;23.482;2022-08-19T03:57:21;93237.47;;;22.45;59.14
11806;BME280;5960;42.602;23.482;2022-08-19T03:59:47;93238.81;;;22.48;58.70
11806;BME280;5960;42.602;23.482;2022-08-19T04:02:14;93241.22;;;22.39;58.76
11806;BME280;5960;42.602;23.482;2022-08-19T04:04:43;93240.69;;;22.42;57.81
11806;BME280;5960;42.602;23.482;2022-08-19T04:07:11;93250.88;;;22.40;57.59
11806;BME280;5960;42.602;23.482;2022-08-19T04:09:40;93250.38;;;22.43;58.32
11806;BME280;5960;42.602;23.482;2022-08-19T04:12:07;93252.22;;;22.58;58.63
11806;BME280;5960;42.602;23.482;2022-08-19T04:14:35;93254.13;;;22.58;58.42
11806;BME280;5960;42.602;23.482;2022-08-19T04:17:03;93247.41;;;22.71;57.24
11806;BME280;5960;42.602;23.482;2022-08-19T04:19:31;93254.91;;;22.68;57.64
11806;BME280;5960;42.602;23.482;2022-08-19T04:21:58;93262.69;;;22.75;58.24
11806;BME280;5960;42.602;23.482;2022-08-19T04:24:25;93264.56;;;22.80;58.29
11806;BME280;5960;42.602;23.482;2022-08-19T04:26:52;93264.56;;;22.90;57.12
11806;BME280;5960;42.602;23.482;2022-08-19T04:29:21;93268.06;;;22.91;57.26
11806;BME280;5960;42.602;23.482;2022-08-19T04:31:52;93269.66;;;22.92;57.57
11806;BME280;5960;42.602;23.482;2022-08-19T04:34:21;93273.97;;;22.93;57.74
11806;BME280;5960;42.602;23.482;2022-08-19T04:36:50;93270.72;;;23.01;57.25
11806;BME280;5960;42.602;23.482;2022-08-19T04:39:20;93269.91;;;23.06;56.95
11806;BME280;5960;42.602;23.482;2022-08-19T04:41:47;93271.50;;;23.12;56.70
11806;BME280;5960;42.602;23.482;2022-08-19T04:44:32;93268.03;;;23.27;57.48
11806;BME280;5960;42.602;23.482;2022-08-19T04:47:02;93265.56;;;23.41;57.27
11806;BME280;5960;42.602;23.482;2022-08-19T04:49:30;93263.38;;;23.53;57.44
11806;BME280;5960;42.602;23.482;2022-08-19T04:51:57;93257.97;;;23.64;56.68
11806;BME280;5960;42.602;23.482;2022-08-19T04:54:24;93253.66;;;23.68;57.35
11806;BME280;5960;42.602;23.482;2022-08-19T04:56:52;93254.34;;;23.84;57.06
11806;BME280;5960;42.602;23.482;2022-08-19T04:59:20;93253.56;;;23.83;57.25
11806;BME280;5960;42.602;23.482;2022-08-19T05:01:48;93258.38;;;23.92;57.21
11806;BME280;5960;42.602;23.482;2022-08-19T05:04:18;93270.94;;;24.07;56.24
11806;BME280;5960;42.602;23.482;2022-08-19T05:06:46;93268.72;;;24.19;56.59
11806;BME280;5960;42.602;23.482;2022-08-19T05:09:13;93269.50;;;24.25;56.70
11806;BME280;5960;42.602;23.482;2022-08-19T05:11:41;93270.59;;;24.24;56.40
11806;BME280;5960;42.602;23.482;2022-08-19T05:14:08;93275.53;;;24.51;55.56
11806;BME280;5960;42.602;23.482;2022-08-19T05:16:36;93274.19;;;24.48;55.88
11806;BME280;5960;42.602;23.482;2022-08-19T05:19:02;93275.22;;;24.58;54.89
11806;BME280;5960;42.602;23.482;2022-08-19T05:21:48;93267.88;;;24.63;55.07
11806;BME280;5960;42.602;23.482;2022-08-19T05:24:32;93267.84;;;24.74;55.92
11806;BME280;5960;42.602;23.482;2022-08-19T05:27:00;93268.22;;;24.91;54.95
11806;BME280;5960;42.602;23.482;2022-08-19T05:29:29;93278.53;;;25.14;54.05
11806;BME280;5960;42.602;23.482;2022-08-19T05:31:57;93271.59;;;25.32;54.05
11806;BME280;5960;42.602;23.482;2022-08-19T05:34:25;93275.25;;;25.46;54.66
11806;BME280;5960;42.602;23.482;2022-08-19T05:36:55;93276.41;;;25.64;55.16
11806;BME280;5960;42.602;23.482;2022-08-19T05:39:24;93277.03;;;25.80;54.80
11806;BME280;5960;42.602;23.482;2022-08-19T05:41:53;93277.34;;;25.98;53.93
11806;BME280;5960;42.602;23.482;2022-08-19T05:44:22;93278.88;;;26.04;53.12
11806;BME280;5960;42.602;23.482;2022-08-19T05:46:49;93276.31;;;26.18;52.97
11806;BME280;5960;42.602;23.482;2022-08-19T05:49:19;93273.53;;;26.23;52.93
11806;BME280;5960;42.602;23.482;2022-08-19T05:51:47;93282.81;;;26.36;52.74
11806;BME280;5960;42.602;23.482;2022-08-19T05:54:15;93289.66;;;26.48;52.16
11806;BME280;5960;42.602;23.482;2022-08-19T05:56:43;93285.94;;;26.63;51.60
11806;BME280;5960;42.602;23.482;2022-08-19T05:59:14;93290.06;;;26.74;50.68
11806;BME280;5960;42.602;23.482;2022-08-19T06:01:43;93284.47;;;26.90;50.92
11806;BME280;5960;42.602;23.482;2022-08-19T06:04:11;93286.38;;;27.03;50.08
11806;BME280;5960;42.602;23.482;2022-08-19T06:06:39;93281.41;;;27.10;49.99
11806;BME280;5960;42.602;23.482;2022-08-19T06:09:07;93294.03;;;27.15;50.20
11806;BME280;5960;42.602;23.482;2022-08-19T06:11:39;93295.56;;;27.21;51.38
11806;BME280;5960;42.602;23.482;2022-08-19T06:14:09;93298.69;;;27.28;50.96
11806;BME280;5960;42.602;23.482;2022-08-19T06:16:37;93303.50;;;27.45;50.49
11806;BME280;5960;42.602;23.482;2022-08-19T06:19:06;93294.81;;;27.62;49.71
11806;BME280;5960;42.602;23.482;2022-08-19T06:21:35;93302.53;;;27.69;48.89
11806;BME280;5960;42.602;23.482;2022-08-19T06:24:04;93308.38;;;27.76;49.81
11806;BME280;5960;42.602;23.482;2022-08-19T06:26:31;93305.16;;;27.88;49.81
11806;BME280;5960;42.602;23.482;2022-08-19T06:29:01;93294.81;;;28.04;50.40
11806;BME280;5960;42.602;23.482;2022-08-19T06:31:29;93297.03;;;28.16;50.51
11806;BME280;5960;42.602;23.482;2022-08-19T06:33:59;93306.25;;;28.29;50.14
11806;BME280;5960;42.602;23.482;2022-08-19T06:36:29;93303.00;;;28.41;49.55
11806;BME280;5960;42.602;23.482;2022-08-19T06:38:57;93295.13;;;28.53;48.68
11806;BME280;5960;42.602;23.482;2022-08-19T06:41:24;93303.56;;;28.66;48.10
11806;BME280;5960;42.602;23.482;2022-08-19T06:43:51;93309.31;;;28.73;48.41
11806;BME280;5960;42.602;23.482;2022-08-19T06:46:20;93301.66;;;28.89;48.42
11806;BME280;5960;42.602;23.482;2022-08-19T06:48:47;93306.91;;;29.08;47.49
11806;BME280;5960;42.602;23.482;2022-08-19T06:51:15;93305.84;;;29.18;46.85
11806;BME280;5960;42.602;23.482;2022-08-19T06:53:44;93300.03;;;29.34;46.43
11806;BME280;5960;42.602;23.482;2022-08-19T06:56:13;93299.34;;;29.51;45.96
11806;BME280;5960;42.602;23.482;2022-08-19T06:58:40;93299.34;;;29.51;45.73
11806;BME280;5960;42.602;23.482;2022-08-19T07:01:07;93314.56;;;29.61;45.88
11806;BME280;5960;42.602;23.482;2022-08-19T07:03:37;93310.44;;;29.72;45.73
11806;BME280;5960;42.602;23.482;2022-08-19T07:06:07;93308.25;;;29.83;45.42
11806;BME280;5960;42.602;23.482;2022-08-19T07:08:36;93306.72;;;29.91;44.78
11806;BME280;5960;42.602;23.482;2022-08-19T07:11:06;93316.66;;;30.04;44.51
11806;BME280;5960;42.602;23.482;2022-08-19T07:13:33;93315.91;;;30.12;44.90
11806;BME280;5960;42.602;23.482;2022-08-19T07:16:03;93312.88;;;30.31;45.00
11806;BME280;5960;42.602;23.482;2022-08-19T07:18:30;93312.91;;;30.40;43.81
11806;BME280;5960;42.602;23.482;2022-08-19T07:21:05;93319.31;;;30.53;44.47
11806;BME280;5960;42.602;23.482;2022-08-19T07:23:32;93313.28;;;30.65;42.78
11806;BME280;5960;42.602;23.482;2022-08-19T07:26:04;93314.09;;;30.74;42.96
11806;BME280;5960;42.602;23.482;2022-08-19T07:28:31;93319.38;;;30.80;43.23
11806;BME280;5960;42.602;23.482;2022-08-19T07:30:58;93318.41;;;30.93;42.75
11806;BME280;5960;42.602;23.482;2022-08-19T07:33:27;93323.03;;;31.10;42.08
11806;BME280;5960;42.602;23.482;2022-08-19T07:35:55;93322.72;;;31.20;42.42
11806;BME280;5960;42.602;23.482;2022-08-19T07:38:23;93316.94;;;31.31;41.24
11806;BME280;5960;42.602;23.482;2022-08-19T07:40:50;93314.38;;;31.34;41.45
11806;BME280;5960;42.602;23.482;2022-08-19T07:43:17;93315.50;;;31.33;41.73
11806;BME280;5960;42.602;23.482;2022-08-19T07:45:50;93313.16;;;31.14;41.22
11806;BME280;5960;42.602;23.482;2022-08-19T07:48:18;93311.69;;;31.17;41.45
11806;BME280;5960;42.602;23.482;2022-08-19T07:50:45;93314.38;;;31.26;41.79
11806;BME280;5960;42.602;23.482;2022-08-19T07:53:13;93309.84;;;31.47;40.62
11806;BME280;5960;42.602;23.482;2022-08-19T07:55:41;93307.13;;;31.47;41.81
11806;BME280;5960;42.602;23.482;2022-08-19T07:58:09;93306.63;;;31.63;42.73
11806;BME280;5960;42.602;23.482;2022-08-19T08:00:36;93305.59;;;31.85;40.36
11806;BME280;5960;42.602;23.482;2022-08-19T08:03:03;93306.59;;;32.10;39.77
11806;BME280;5960;42.602;23.482;2022-08-19T08:05:31;93307.81;;;32.22;39.62
11806;BME280;5960;42.602;23.482;2022-08-19T08:08:15;93305.94;;;32.44;39.77
11806;BME280;5960;42.602;23.482;2022-08-19T08:11:00;93311.81;;;32.54;38.71
11806;BME280;5960;42.602;23.482;2022-08-19T08:13:27;93312.03;;;32.70;39.27
11806;BME280;5960;42.602;23.482;2022-08-19T08:15:54;93310.00;;;32.89;39.01
11806;BME280;5960;42.602;23.482;2022-08-19T08:18:21;93299.66;;;32.94;38.38
11806;BME280;5960;42.602;23.482;2022-08-19T08:20:48;93305.84;;;33.04;37.94
11806;BME280;5960;42.602;23.482;2022-08-19T08:23:15;93307.59;;;33.21;37.41
11806;BME280;5960;42.602;23.482;2022-08-19T08:25:53;93310.84;;;33.35;35.71
11806;BME280;5960;42.602;23.482;2022-08-19T08:28:22;93307.31;;;33.35;35.75
11806;BME280;5960;42.602;23.482;2022-08-19T08:30:50;93307.38;;;33.47;36.29
11806;BME280;5960;42.602;23.482;2022-08-19T08:33:18;93307.75;;;33.58;36.98
11806;BME280;5960;42.602;23.482;2022-08-19T08:35:45;93309.91;;;33.77;36.22
11806;BME280;5960;42.602;23.482;2022-08-19T08:38:13;93298.44;;;33.84;34.36
11806;BME280;5960;42.602;23.482;2022-08-19T08:40:44;93300.63;;;34.03;33.64
11806;BME280;5960;42.602;23.482;2022-08-19T08:43:23;93306.31;;;34.23;34.34
11806;BME280;5960;42.602;23.482;2022-08-19T08:45:56;93299.03;;;34.39;33.60
11806;BME280;5960;42.602;23.482;2022-08-19T08:48:33;93294.69;;;34.50;33.37
11806;BME280;5960;42.602;23.482;2022-08-19T08:51:03;93296.59;;;34.62;33.44
11806;BME280;5960;42.602;23.482;2022-08-19T08:53:31;93294.50;;;34.84;32.66
11806;BME280;5960;42.602;23.482;2022-08-19T08:56:02;93296.44;;;34.84;30.64
11806;BME280;5960;42.602;23.482;2022-08-19T08:58:39;93295.16;;;34.93;32.66
11806;BME280;5960;42.602;23.482;2022-08-19T09:01:09;93294.09;;;35.10;31.96
11806;BME280;5960;42.602;23.482;2022-08-19T09:03:37;93289.22;;;35.32;31.41
11806;BME280;5960;42.602;23.482;2022-08-19T09:06:10;93291.41;;;35.43;30.31
11806;BME280;5960;42.602;23.482;2022-08-19T09:08:43;93284.50;;;35.33;29.63
11806;BME280;5960;42.602;23.482;2022-08-19T09:11:20;93284.06;;;35.31;29.28
11806;BME280;5960;42.602;23.482;2022-08-19T09:14:04;93284.50;;;35.45;31.00
11806;BME280;5960;42.602;23.482;2022-08-19T09:16:34;93276.97;;;35.58;30.81
11806;BME280;5960;42.602;23.482;2022-08-19T09:19:04;93277.94;;;35.82;30.88
11806;BME280;5960;42.602;23.482;2022-08-19T09:21:32;93279.69;;;36.03;29.61
11806;BME280;5960;42.602;23.482;2022-08-19T09:23:59;93279.28;;;36.20;29.14
11806;BME280;5960;42.602;23.482;2022-08-19T09:26:26;93268.72;;;36.38;26.96
11806;BME280;5960;42.602;23.482;2022-08-19T09:28:54;93274.56;;;36.53;27.13
11806;BME280;5960;42.602;23.482;2022-08-19T09:31:25;93273.41;;;36.54;27.83
11806;BME280;5960;42.602;23.482;2022-08-19T09:33:53;93261.66;;;36.73;27.39
11806;BME280;5960;42.602;23.482;2022-08-19T09:36:23;93272.00;;;36.80;28.86
11806;BME280;5960;42.602;23.482;2022-08-19T09:38:52;93260.50;;;36.94;28.07
11806;BME280;5960;42.602;23.482;2022-08-19T09:41:20;93270.56;;;36.50;26.70
11806;BME280;5960;42.602;23.482;2022-08-19T09:43:50;93259.16;;;35.96;25.75
11806;BME280;5960;42.602;23.482;2022-08-19T09:46:20;93266.28;;;35.53;26.08
11806;BME280;5960;42.602;23.482;2022-08-19T09:48:48;93267.59;;;35.59;27.43
11806;BME280;5960;42.602;23.482;2022-08-19T09:51:17;93268.06;;;35.93;25.92
11806;BME280;5960;42.602;23.482;2022-08-19T09:53:46;93258.75;;;35.82;26.01
11806;BME280;5960;42.602;23.482;2022-08-19T09:56:16;93255.16;;;35.78;26.66
11806;BME280;5960;42.602;23.482;2022-08-19T09:58:43;93250.66;;;36.02;26.87
11806;BME280;5960;42.602;23.482;2022-08-19T10:01:15;93247.03;;;36.49;26.31
11806;BME280;5960;42.602;23.482;2022-08-19T10:03:47;93243.03;;;37.02;26.19
11806;BME280;5960;42.602;23.482;2022-08-19T10:06:16;93251.88;;;37.34;24.33
11806;BME280;5960;42.602;23.482;2022-08-19T10:08:44;93246.59;;;37.26;24.12
11806;BME280;5960;42.602;23.482;2022-08-19T10:11:11;93237.47;;;37.41;24.37
11806;BME280;5960;42.602;23.482;2022-08-19T10:13:40;93237.25;;;37.50;24.93
11806;BME280;5960;42.602;23.482;2022-08-19T10:16:08;93235.13;;;37.63;25.12
11806;BME280;5960;42.602;23.482;2022-08-19T10:18:36;93237.44;;;37.61;23.80
11806;BME280;5960;42.602;23.482;2022-08-19T10:21:07;93230.41;;;37.63;24.32
11806;BME280;5960;42.602;23.482;2022-08-19T10:23:35;93227.59;;;37.83;24.27
11806;BME280;5960;42.602;23.482;2022-08-19T10:26:03;93234.41;;;38.16;25.88
11806;BME280;5960;42.602;23.482;2022-08-19T10:28:32;93237.13;;;38.40;25.22
11806;BME280;5960;42.602;23.482;2022-08-19T10:31:03;93241.53;;;38.44;23.15
11806;BME280;5960;42.602;23.482;2022-08-19T10:33:32;93232.28;;;38.06;23.48
11806;BME280;5960;42.602;23.482;2022-08-19T10:36:00;93227.22;;;37.38;23.73
11806;BME280;5960;42.602;23.482;2022-08-19T10:38:28;93223.19;;;37.55;24.91
11806;BME280;5960;42.602;23.482;2022-08-19T10:40:55;93220.81;;;37.77;24.60
11806;BME280;5960;42.602;23.482;2022-08-19T10:43:22;93220.34;;;38.21;24.82
11806;BME280;5960;42.602;23.482;2022-08-19T10:45:52;93224.84;;;38.33;25.15
11806;BME280;5960;42.602;23.482;2022-08-19T10:48:21;93220.81;;;38.54;24.61
11806;BME280;5960;42.602;23.482;2022-08-19T10:50:48;93222.31;;;38.82;24.90
11806;BME280;5960;42.602;23.482;2022-08-19T10:53:33;93226.44;;;38.95;23.82
11806;BME280;5960;42.602;23.482;2022-08-19T10:56:00;93224.72;;;38.83;22.86
11806;BME280;5960;42.602;23.482;2022-08-19T10:58:44;93217.91;;;37.23;23.31
11806;BME280;5960;42.602;23.482;2022-08-19T11:01:11;93215.31;;;37.11;23.94
11806;BME280;5960;42.602;23.482;2022-08-19T11:03:37;93209.63;;;37.00;24.35
11806;BME280;5960;42.602;23.482;2022-08-19T11:06:06;93216.06;;;37.51;25.22
11806;BME280;5960;42.602;23.482;2022-08-19T11:08:36;93208.34;;;38.06;24.13
11806;BME280;5960;42.602;23.482;2022-08-19T11:11:05;93210.22;;;38.56;24.17
11806;BME280;5960;42.602;23.482;2022-08-19T11:13:34;93210.78;;;39.03;22.69
11806;BME280;5960;42.602;23.482;2022-08-19T11:16:05;93211.34;;;39.57;22.78
11806;BME280;5960;42.602;23.482;2022-08-19T11:18:34;93200.72;;;40.05;22.80
11806;BME280;5960;42.602;23.482;2022-08-19T11:21:06;93211.25;;;39.92;22.16
11806;BME280;5960;42.602;23.482;2022-08-19T11:23:35;93208.72;;;39.72;22.78
11806;BME280;5960;42.602;23.482;2022-08-19T11:26:01;93213.22;;;39.91;22.42
11806;BME280;5960;42.602;23.482;2022-08-19T11:28:28;93207.00;;;40.05;23.59
11806;BME280;5960;42.602;23.482;2022-08-19T11:30:55;93214.41;;;40.46;22.82
11806;BME280;5960;42.602;23.482;2022-08-19T11:33:22;93202.72;;;40.78;22.87
11806;BME280;5960;42.602;23.482;2022-08-19T11:35:51;93201.22;;;40.99;22.22
11806;BME280;5960;42.602;23.482;2022-08-19T11:38:18;93204.47;;;41.19;21.37
11806;BME280;5960;42.602;23.482;2022-08-19T11:40:54;93194.22;;;41.34;21.47
11806;BME280;5960;42.602;23.482;2022-08-19T11:43:21;93188.72;;;41.41;21.58
11806;BME280;5960;42.602;23.482;2022-08-19T11:45:47;93196.25;;;41.70;21.30
11806;BME280;5960;42.602;23.482;2022-08-19T11:48:14;93188.69;;;41.45;20.75
11806;BME280;5960;42.602;23.482;2022-08-19T11:50:41;93197.81;;;41.63;21.34
11806;BME280;5960;42.602;23.482;2022-08-19T11:53:08;93191.13;;;41.79;21.66
11806;BME280;5960;42.602;23.482;2022-08-19T11:55:37;93190.34;;;41.64;20.56
11806;BME280;5960;42.602;23.482;2022-08-19T11:58:06;93190.72;;;41.70;20.56
11806;BME280;5960;42.602;23.482;2022-08-19T12:00:33;93184.75;;;41.46;20.32
11806;BME280;5960;42.602;23.482;2022-08-19T12:03:00;93181.56;;;41.36;21.90
11806;BME280;5960;42.602;23.482;2022-08-19T12:05:27;93179.22;;;41.49;21.55
11806;BME280;5960;42.602;23.482;2022-08-19T12:07:54;93174.91;;;41.74;21.59
11806;BME280;5960;42.602;23.482;2022-08-19T12:10:22;93179.66;;;41.80;20.41
11806;BME280;5960;42.602;23.482;2022-08-19T12:12:49;93172.53;;;41.69;21.02
11806;BME280;5960;42.602;23.482;2022-08-19T12:15:17;93167.78;;;41.69;21.48
11806;BME280;5960;42.602;23.482;2022-08-19T12:17:44;93171.34;;;41.88;21.70
11806;BME280;5960;42.602;23.482;2022-08-19T12:20:12;93165.81;;;42.02;20.66
11806;BME280;5960;42.602;23.482;2022-08-19T12:22:41;93157.50;;;42.13;21.02
11806;BME280;5960;42.602;23.482;2022-08-19T12:25:09;93151.94;;;42.20;20.77
11806;BME280;5960;42.602;23.482;2022-08-19T12:27:36;93156.31;;;42.03;21.19
11806;BME280;5960;42.602;23.482;2022-08-19T12:30:06;93151.56;;;41.89;19.44
11806;BME280;5960;42.602;23.482;2022-08-19T12:32:36;93147.25;;;41.77;21.55
11806;BME280;5960;42.602;23.482;2022-08-19T12:35:04;93146.47;;;41.99;20.76
11806;BME280;5960;42.602;23.482;2022-08-19T12:37:31;93144.84;;;42.12;20.47
11806;BME280;5960;42.602;23.482;2022-08-19T12:39:58;93139.69;;;42.18;21.69
11806;BME280;5960;42.602;23.482;2022-08-19T12:42:26;93143.25;;;42.25;21.03
11806;BME280;5960;42.602;23.482;2022-08-19T12:44:53;93136.88;;;42.36;20.87
11806;BME280;5960;42.602;23.482;2022-08-19T12:47:20;93138.41;;;42.55;20.58
11806;BME280;5960;42.602;23.482;2022-08-19T12:49:48;93134.00;;;42.68;20.69
11806;BME280;5960;42.602;23.482;2022-08-19T12:52:16;93131.19;;;42.72;19.60
11806;BME280;5960;42.602;23.482;2022-08-19T12:54:47;93137.25;;;42.45;20.21
11806;BME280;5960;42.602;23.482;2022-08-19T12:57:13;93129.84;;;41.95;20.58
11806;BME280;5960;42.602;23.482;2022-08-19T12:59:40;93131.44;;;41.81;20.84
11806;BME280;5960;42.602;23.482;2022-08-19T13:02:07;93136.19;;;41.77;20.67
11806;BME280;5960;42.602;23.482;2022-08-19T13:04:35;93131.81;;;41.36;20.43
11806;BME280;5960;42.602;23.482;2022-08-19T13:07:07;93121.00;;;40.66;21.87